createdAt,value
2022-10-22T00:00:04.442Z,58.00
2022-10-22T00:01:04.471Z,59.90
2022-10-22T00:02:04.442Z,57.50
2022-10-22T00:03:04.480Z,57.60
2022-10-22T00:04:04.418Z,53.60
2022-10-22T00:05:04.422Z,47.10
2022-10-22T00:06:04.399Z,41.40
2022-10-22T00:07:04.370Z,39.10
2022-10-22T00:08:04.384Z,48.70
2022-10-22T00:09:04.409Z,43.90
2022-10-22T00:10:04.319Z,45.70
2022-10-22T00:11:04.289Z,45.50
2022-10-22T00:12:04.309Z,41.70
2022-10-22T00:13:04.287Z,41.40
2022-10-22T00:14:04.296Z,44.20
2022-10-22T00:15:25.251Z,48.90
2022-10-22T00:16:04.264Z,39.90
2022-10-22T00:17:05.860Z,46.10
2022-10-22T00:18:05.199Z,44.60
2022-10-22T00:19:04.196Z,50.00
2022-10-22T00:20:04.202Z,44.50
2022-10-22T00:21:04.153Z,58.00
2022-10-22T00:22:04.141Z,44.90
2022-10-22T00:23:04.125Z,56.80
2022-10-22T00:24:04.104Z,52.70
2022-10-22T00:25:04.099Z,57.40
2022-10-22T00:26:04.095Z,54.20
2022-10-22T00:27:04.063Z,57.50
2022-10-22T00:28:04.054Z,52.00
2022-10-22T00:29:04.975Z,58.40
2022-10-22T00:30:04.876Z,54.70
2022-10-22T00:31:04.097Z,55.20
2022-10-22T00:32:04.977Z,49.50
2022-10-22T00:33:03.975Z,41.20
2022-10-22T00:34:04.776Z,42.90
2022-10-22T00:35:03.968Z,44.60
2022-10-22T00:36:04.822Z,46.60
2022-10-22T00:37:04.581Z,39.60
2022-10-22T00:38:04.907Z,42.70
2022-10-22T00:39:03.936Z,43.80
2022-10-22T00:40:03.879Z,45.10
2022-10-22T00:41:03.942Z,43.00
2022-10-22T00:42:04.011Z,43.80
2022-10-22T00:43:04.097Z,41.50
2022-10-22T00:44:03.830Z,47.70
2022-10-22T00:45:04.229Z,52.00
2022-10-22T00:46:04.281Z,53.10
2022-10-22T00:47:04.761Z,47.60
2022-10-22T00:48:04.336Z,51.70
2022-10-22T00:49:04.408Z,50.70
2022-10-22T00:51:04.540Z,42.10
2022-10-22T00:52:03.702Z,37.20
2022-10-22T00:53:03.713Z,38.90
2022-10-22T00:54:03.675Z,40.20
2022-10-22T00:55:04.605Z,43.90
2022-10-22T00:56:04.482Z,42.80
2022-10-22T00:57:03.933Z,38.80
2022-10-22T00:58:03.643Z,52.30
2022-10-22T00:59:03.796Z,42.90
2022-10-22T01:00:04.593Z,43.70
2022-10-22T01:01:03.706Z,49.30
2022-10-22T01:02:03.564Z,50.70
2022-10-22T01:03:03.561Z,52.60
2022-10-22T01:04:04.855Z,51.00
2022-10-22T01:05:04.384Z,54.80
2022-10-22T01:06:04.535Z,39.90
2022-10-22T01:07:03.545Z,49.90
2022-10-22T01:08:03.543Z,51.30
2022-10-22T01:09:03.549Z,42.70
2022-10-22T01:10:04.365Z,42.20
2022-10-22T01:11:03.460Z,39.40
2022-10-22T01:12:03.555Z,49.60
2022-10-22T01:13:03.518Z,47.20
2022-10-22T01:14:03.397Z,45.30
2022-10-22T01:15:03.447Z,42.00
2022-10-22T01:16:03.408Z,42.40
2022-10-22T01:17:03.369Z,46.00
2022-10-22T01:18:03.349Z,51.60
2022-10-22T01:19:03.359Z,55.60
2022-10-22T01:20:03.380Z,42.70
2022-10-22T01:21:03.459Z,54.90
2022-10-22T01:22:03.451Z,48.40
2022-10-22T01:23:03.271Z,49.70
2022-10-22T01:24:03.350Z,57.40
2022-10-22T01:25:03.296Z,47.80
2022-10-22T01:26:03.401Z,53.50
2022-10-22T01:27:03.468Z,49.20
2022-10-22T01:28:03.458Z,48.00
2022-10-22T01:29:03.194Z,46.90
2022-10-22T01:30:03.183Z,50.60
2022-10-22T01:31:03.181Z,51.50
2022-10-22T01:32:03.405Z,49.50
2022-10-22T01:33:03.382Z,46.10
2022-10-22T01:34:03.148Z,43.00
2022-10-22T01:35:03.104Z,45.30
2022-10-22T01:36:03.403Z,40.70
2022-10-22T01:37:03.450Z,52.20
2022-10-22T01:38:03.413Z,40.30
2022-10-22T01:39:03.072Z,39.80
2022-10-22T01:40:03.712Z,47.50
2022-10-22T01:41:03.051Z,41.40
2022-10-22T01:42:03.015Z,43.80
2022-10-22T01:43:02.995Z,34.20
2022-10-22T01:44:03.027Z,45.00
2022-10-22T01:45:02.977Z,46.20
2022-10-22T01:46:02.955Z,50.10
2022-10-22T01:47:02.980Z,47.50
2022-10-22T01:48:02.917Z,44.10
2022-10-22T01:49:03.694Z,48.50
2022-10-22T01:50:02.929Z,39.60
2022-10-22T01:51:02.868Z,37.40
2022-10-22T01:52:02.898Z,42.70
2022-10-22T01:53:02.863Z,39.40
2022-10-22T01:54:02.849Z,35.40
2022-10-22T01:55:02.809Z,42.70
2022-10-22T01:56:02.801Z,37.40
2022-10-22T01:57:02.797Z,37.90
2022-10-22T01:58:02.800Z,39.20
2022-10-22T01:59:02.809Z,52.30
2022-10-22T02:00:02.756Z,37.30
2022-10-22T02:01:02.792Z,42.80
2022-10-22T02:02:02.720Z,42.50
2022-10-22T02:03:02.902Z,33.90
2022-10-22T02:04:02.711Z,47.20
2022-10-22T02:05:02.671Z,46.80
2022-10-22T02:06:02.676Z,35.50
2022-10-22T02:07:02.661Z,45.40
2022-10-22T02:08:02.635Z,35.90
2022-10-22T02:09:02.703Z,47.20
2022-10-22T02:10:02.999Z,47.00
2022-10-22T02:11:02.942Z,42.10
2022-10-22T02:12:02.640Z,45.30
2022-10-22T02:13:02.582Z,44.30
2022-10-22T02:14:02.752Z,57.70
2022-10-22T02:15:02.570Z,51.70
2022-10-22T02:16:02.527Z,50.30
2022-10-22T02:17:02.506Z,47.60
2022-10-22T02:18:02.493Z,45.90
2022-10-22T02:19:02.940Z,39.50
2022-10-22T02:20:02.474Z,45.00
2022-10-22T02:21:02.497Z,43.50
2022-10-22T02:22:02.434Z,39.70
2022-10-22T02:23:02.442Z,49.40
2022-10-22T02:24:02.416Z,62.50
2022-10-22T02:25:02.407Z,50.40
2022-10-22T02:26:02.377Z,47.80
2022-10-22T02:27:02.377Z,50.60
2022-10-22T02:28:02.337Z,48.50
2022-10-22T02:29:02.338Z,42.70
2022-10-22T02:30:02.400Z,40.60
2022-10-22T02:31:02.358Z,40.00
2022-10-22T02:32:02.318Z,52.20
2022-10-22T02:33:02.287Z,47.80
2022-10-22T02:34:02.258Z,39.50
2022-10-22T02:35:02.278Z,46.50
2022-10-22T02:36:02.238Z,43.30
2022-10-22T02:37:02.218Z,42.00
2022-10-22T02:38:02.230Z,39.50
2022-10-22T02:39:02.227Z,45.90
2022-10-22T02:40:02.180Z,37.20
2022-10-22T02:41:02.181Z,32.30
2022-10-22T02:42:02.138Z,35.30
2022-10-22T02:43:02.141Z,35.00
2022-10-22T02:44:02.131Z,44.00
2022-10-22T02:45:02.101Z,42.80
2022-10-22T02:46:02.102Z,35.50
2022-10-22T02:47:02.093Z,36.30
2022-10-22T02:48:02.112Z,40.20
2022-10-22T02:49:02.083Z,36.60
2022-10-22T02:50:04.519Z,49.70
2022-10-22T02:51:02.023Z,46.70
2022-10-22T02:52:02.003Z,50.60
2022-10-22T02:53:02.195Z,51.70
2022-10-22T02:54:01.974Z,47.80
2022-10-22T02:55:02.005Z,63.20
2022-10-22T02:56:01.953Z,47.10
2022-10-22T02:57:01.974Z,51.20
2022-10-22T02:58:01.925Z,43.40
2022-10-22T02:59:01.976Z,45.60
2022-10-22T03:00:01.887Z,40.80
2022-10-22T03:01:01.954Z,47.40
2022-10-22T03:02:01.894Z,50.30
2022-10-22T03:03:01.862Z,39.10
2022-10-22T03:04:01.849Z,46.60
2022-10-22T03:05:01.807Z,39.70
2022-10-22T03:06:01.817Z,37.20
2022-10-22T03:07:01.787Z,40.60
2022-10-22T03:08:02.219Z,47.00
2022-10-22T03:09:01.886Z,43.90
2022-10-22T03:10:01.865Z,33.50
2022-10-22T03:11:01.729Z,39.10
2022-10-22T03:12:02.187Z,38.90
2022-10-22T03:13:02.290Z,48.30
2022-10-22T03:14:01.679Z,30.30
2022-10-22T03:15:01.688Z,45.50
2022-10-22T03:16:01.774Z,42.50
2022-10-22T03:17:01.679Z,32.40
2022-10-22T03:18:01.692Z,28.90
2022-10-22T03:19:01.633Z,34.10
2022-10-22T03:20:01.601Z,32.80
2022-10-22T03:21:01.654Z,39.00
2022-10-22T03:22:01.590Z,38.00
2022-10-22T03:23:01.597Z,34.60
2022-10-22T03:24:01.561Z,32.30
2022-10-22T03:25:01.549Z,34.70
2022-10-22T03:26:01.545Z,32.40
2022-10-22T03:27:02.513Z,30.50
2022-10-22T03:28:01.484Z,28.10
2022-10-22T03:29:01.481Z,34.80
2022-10-22T03:30:01.491Z,36.30
2022-10-22T03:31:01.546Z,36.30
2022-10-22T03:32:01.442Z,45.50
2022-10-22T03:33:01.434Z,39.10
2022-10-22T03:34:01.602Z,41.20
2022-10-22T03:35:01.412Z,38.70
2022-10-22T03:36:01.469Z,42.50
2022-10-22T03:37:01.376Z,39.20
2022-10-22T03:38:01.402Z,43.60
2022-10-22T03:39:01.352Z,43.50
2022-10-22T03:40:01.341Z,41.50
2022-10-22T03:41:01.334Z,39.70
2022-10-22T03:42:02.149Z,38.50
2022-10-22T03:43:02.108Z,38.50
2022-10-22T03:44:01.265Z,41.40
2022-10-22T03:45:01.326Z,34.90
2022-10-22T03:46:05.082Z,41.50
2022-10-22T03:47:02.700Z,40.90
2022-10-22T03:48:01.428Z,40.60
2022-10-22T03:49:01.236Z,43.40
2022-10-22T03:50:01.178Z,44.60
2022-10-22T03:51:01.966Z,44.50
2022-10-22T03:52:02.169Z,42.20
2022-10-22T03:53:02.029Z,41.50
2022-10-22T03:54:01.938Z,41.20
2022-10-22T03:55:01.170Z,42.70
2022-10-22T03:56:01.153Z,41.60
2022-10-22T03:57:01.078Z,38.40
2022-10-22T03:58:02.061Z,32.00
2022-10-22T03:59:02.028Z,39.30
2022-10-22T04:00:01.910Z,39.60
2022-10-22T04:01:01.070Z,43.10
2022-10-22T04:02:01.954Z,44.80
2022-10-22T04:03:01.840Z,43.30
2022-10-22T04:04:02.029Z,45.50
2022-10-22T04:05:01.043Z,45.90
2022-10-22T04:06:01.087Z,32.30
2022-10-22T04:07:00.940Z,44.50
2022-10-22T04:08:01.871Z,54.00
2022-10-22T04:09:01.027Z,49.00
2022-10-22T04:10:00.941Z,48.30
2022-10-22T04:11:01.871Z,55.20
2022-10-22T04:12:00.862Z,53.20
2022-10-22T04:13:01.683Z,57.60
2022-10-22T04:14:01.879Z,63.90
2022-10-22T04:15:01.752Z,43.80
2022-10-22T04:16:00.844Z,47.50
2022-10-22T04:17:00.803Z,42.90
2022-10-22T04:18:00.797Z,44.40
2022-10-22T04:19:00.847Z,57.20
2022-10-22T04:20:02.200Z,50.00
2022-10-22T04:21:00.764Z,40.70
2022-10-22T04:22:00.733Z,43.60
2022-10-22T04:23:00.724Z,34.30
2022-10-22T04:24:00.754Z,39.20
2022-10-22T04:25:00.727Z,42.90
2022-10-22T04:26:00.704Z,42.20
2022-10-22T04:27:00.703Z,41.70
2022-10-22T04:28:00.725Z,39.90
2022-10-22T04:29:00.704Z,32.70
2022-10-22T04:30:00.670Z,44.10
2022-10-22T04:31:00.666Z,44.30
2022-10-22T04:32:00.617Z,46.90
2022-10-22T04:33:00.587Z,46.80
2022-10-22T04:34:00.629Z,43.70
2022-10-22T04:35:00.760Z,44.80
2022-10-22T04:36:00.589Z,43.60
2022-10-22T04:37:00.656Z,45.90
2022-10-22T04:38:00.620Z,45.40
2022-10-22T04:39:00.507Z,40.80
2022-10-22T04:40:00.490Z,47.20
2022-10-22T04:41:00.627Z,46.10
2022-10-22T04:42:00.479Z,45.70
2022-10-22T04:43:00.438Z,34.80
2022-10-22T04:44:00.423Z,36.00
2022-10-22T04:45:00.482Z,42.40
2022-10-22T04:46:00.464Z,46.90
2022-10-22T04:47:00.449Z,45.10
2022-10-22T04:48:00.404Z,36.60
2022-10-22T04:49:00.490Z,38.90
2022-10-22T04:50:00.430Z,38.50
2022-10-22T04:51:00.420Z,35.00
2022-10-22T04:52:00.365Z,33.90
2022-10-22T04:53:00.440Z,28.50
2022-10-22T04:54:00.393Z,34.20
2022-10-22T04:55:01.232Z,38.60
2022-10-22T04:56:00.435Z,36.30
2022-10-22T04:57:00.415Z,40.60
2022-10-22T04:58:00.375Z,38.90
2022-10-22T04:59:00.441Z,36.60
2022-10-22T05:00:00.199Z,37.40
2022-10-22T05:01:00.217Z,38.20
2022-10-22T05:02:00.164Z,34.70
2022-10-22T05:03:00.406Z,30.80
2022-10-22T05:04:00.426Z,27.30
2022-10-22T05:05:00.148Z,31.70
2022-10-22T05:06:00.183Z,33.70
2022-10-22T05:07:00.114Z,36.40
2022-10-22T05:08:00.097Z,34.70
2022-10-22T05:09:00.158Z,34.00
2022-10-22T05:10:00.082Z,24.80
2022-10-22T05:11:00.085Z,29.50
2022-10-22T05:12:00.045Z,29.00
2022-10-22T05:13:00.046Z,29.40
2022-10-22T05:14:00.005Z,30.70
2022-10-22T05:15:00.028Z,27.20
2022-10-22T05:15:59.982Z,28.00
2022-10-22T05:17:00.090Z,28.90
2022-10-22T05:17:59.956Z,27.20
2022-10-22T05:18:59.978Z,35.90
2022-10-22T05:19:59.995Z,32.00
2022-10-22T05:20:59.977Z,32.70
2022-10-22T05:21:59.895Z,34.20
2022-10-22T05:22:59.888Z,37.60
2022-10-22T05:24:00.721Z,25.40
2022-10-22T05:24:59.848Z,29.20
2022-10-22T05:25:59.829Z,31.60
2022-10-22T05:26:59.859Z,35.10
2022-10-22T05:28:00.372Z,30.40
2022-10-22T05:28:59.799Z,27.90
2022-10-22T05:30:00.139Z,31.50
2022-10-22T05:31:00.558Z,32.10
2022-10-22T05:31:59.764Z,28.60
2022-10-22T05:32:59.770Z,23.70
2022-10-22T05:33:59.931Z,29.80
2022-10-22T05:34:59.691Z,27.20
2022-10-22T05:35:59.681Z,26.60
2022-10-22T05:36:59.737Z,28.60
2022-10-22T05:37:59.700Z,28.90
2022-10-22T05:38:59.671Z,25.00
2022-10-22T05:40:12.370Z,29.30
2022-10-22T05:41:00.632Z,29.10
2022-10-22T05:41:59.682Z,26.40
2022-10-22T05:42:59.587Z,34.40
2022-10-22T05:43:59.601Z,31.00
2022-10-22T05:44:59.593Z,25.60
2022-10-22T05:45:59.559Z,30.60
2022-10-22T05:46:59.536Z,22.60
2022-10-22T05:47:59.527Z,27.60
2022-10-22T05:49:00.162Z,25.60
2022-10-22T05:49:59.543Z,32.70
2022-10-22T05:50:59.515Z,25.30
2022-10-22T05:51:59.511Z,29.90
2022-10-22T05:52:59.503Z,28.80
2022-10-22T05:53:59.454Z,28.00
2022-10-22T05:54:59.675Z,30.50
2022-10-22T05:55:59.408Z,27.70
2022-10-22T05:56:59.445Z,24.30
2022-10-22T05:57:59.379Z,27.00
2022-10-22T05:58:59.431Z,30.90
2022-10-22T05:59:59.473Z,29.30
2022-10-22T06:00:59.356Z,30.60
2022-10-22T06:01:59.515Z,26.40
2022-10-22T06:02:59.534Z,25.90
2022-10-22T06:03:59.299Z,24.10
2022-10-22T06:04:59.283Z,28.80
2022-10-22T06:05:59.268Z,28.90
2022-10-22T06:06:59.269Z,26.50
2022-10-22T06:08:00.688Z,30.20
2022-10-22T06:08:59.301Z,22.90
2022-10-22T06:10:00.237Z,25.00
2022-10-22T06:10:59.205Z,25.80
2022-10-22T06:11:59.211Z,26.90
2022-10-22T06:12:59.326Z,28.00
2022-10-22T06:13:59.158Z,21.00
2022-10-22T06:14:59.139Z,27.80
2022-10-22T06:15:59.159Z,29.30
2022-10-22T06:16:59.100Z,25.40
2022-10-22T06:17:59.132Z,23.60
2022-10-22T06:18:59.112Z,25.50
2022-10-22T06:19:59.127Z,23.00
2022-10-22T06:20:59.102Z,26.80
2022-10-22T06:21:59.032Z,27.70
2022-10-22T06:22:59.914Z,24.50
2022-10-22T06:23:59.044Z,29.60
2022-10-22T06:24:59.015Z,32.80
2022-10-22T06:25:59.006Z,31.30
2022-10-22T06:26:58.967Z,27.50
2022-10-22T06:27:58.954Z,30.20
2022-10-22T06:28:58.957Z,28.30
2022-10-22T06:29:58.935Z,28.60
2022-10-22T06:30:58.916Z,32.70
2022-10-22T06:31:58.998Z,30.10
2022-10-22T06:32:58.887Z,28.30
2022-10-22T06:33:58.886Z,29.70
2022-10-22T06:34:58.909Z,30.30
2022-10-22T06:35:58.865Z,32.00
2022-10-22T06:36:58.819Z,29.60
2022-10-22T06:37:58.819Z,31.90
2022-10-22T06:38:58.806Z,26.60
2022-10-22T06:39:58.787Z,34.80
2022-10-22T06:40:58.829Z,34.80
2022-10-22T06:41:58.768Z,33.20
2022-10-22T06:42:58.837Z,30.40
2022-10-22T06:43:58.744Z,37.50
2022-10-22T06:44:58.777Z,37.50
2022-10-22T06:45:58.720Z,36.00
2022-10-22T06:46:58.703Z,36.50
2022-10-22T06:47:58.682Z,32.60
2022-10-22T06:48:58.698Z,31.80
2022-10-22T06:49:58.652Z,33.30
2022-10-22T06:50:58.741Z,28.50
2022-10-22T06:51:58.620Z,31.50
2022-10-22T06:52:58.659Z,32.30
2022-10-22T06:53:58.596Z,31.90
2022-10-22T06:54:58.580Z,37.00
2022-10-22T06:55:58.582Z,35.00
2022-10-22T06:56:59.224Z,34.80
2022-10-22T06:57:58.542Z,32.80
2022-10-22T06:58:58.574Z,31.20
2022-10-22T06:59:58.524Z,31.80
2022-10-22T07:00:58.533Z,34.70
2022-10-22T07:01:58.471Z,35.40
2022-10-22T07:02:59.845Z,30.40
2022-10-22T07:03:58.463Z,37.40
2022-10-22T07:04:59.558Z,36.70
2022-10-22T07:05:58.465Z,36.90
2022-10-22T07:06:59.289Z,34.60
2022-10-22T07:07:58.425Z,35.10
2022-10-22T07:08:58.578Z,34.20
2022-10-22T07:09:59.310Z,33.10
2022-10-22T07:10:58.367Z,34.10
2022-10-22T07:11:58.344Z,29.80
2022-10-22T07:12:58.345Z,33.50
2022-10-22T07:13:59.116Z,32.60
2022-10-22T07:14:58.347Z,30.50
2022-10-22T07:15:58.286Z,37.80
2022-10-22T07:16:58.417Z,33.50
2022-10-22T07:17:59.266Z,30.80
2022-10-22T07:18:58.246Z,37.30
2022-10-22T07:19:59.090Z,38.50
2022-10-22T07:20:59.249Z,36.60
2022-10-22T07:21:59.155Z,33.60
2022-10-22T07:22:58.829Z,36.80
2022-10-22T07:23:59.227Z,32.70
2022-10-22T07:25:01.582Z,39.10
2022-10-22T07:25:59.022Z,36.90
2022-10-22T07:26:58.198Z,36.00
2022-10-22T07:27:58.159Z,36.80
2022-10-22T07:28:58.158Z,32.00
2022-10-22T07:29:58.110Z,36.00
2022-10-22T07:30:58.188Z,39.90
2022-10-22T07:31:58.081Z,33.80
2022-10-22T07:32:58.120Z,33.20
2022-10-22T07:33:58.992Z,39.50
2022-10-22T07:34:58.031Z,38.50
2022-10-22T07:35:58.022Z,39.70
2022-10-22T07:36:58.963Z,37.50
2022-10-22T07:37:58.862Z,36.80
2022-10-22T07:38:58.026Z,34.60
2022-10-22T07:40:01.496Z,33.20
2022-10-22T07:40:59.349Z,34.10
2022-10-22T07:41:58.043Z,35.20
2022-10-22T07:42:58.940Z,32.90
2022-10-22T07:43:58.794Z,40.80
2022-10-22T07:44:57.882Z,39.50
2022-10-22T07:45:59.348Z,37.70
2022-10-22T07:46:57.949Z,40.00
2022-10-22T07:47:58.706Z,43.30
2022-10-22T07:48:57.846Z,36.90
2022-10-22T07:49:57.849Z,35.10
2022-10-22T07:50:57.805Z,39.90
2022-10-22T07:51:59.096Z,42.20
2022-10-22T07:52:58.503Z,37.50
2022-10-22T07:53:58.214Z,42.50
2022-10-22T07:54:58.547Z,41.70
2022-10-22T07:55:58.671Z,34.20
2022-10-22T07:56:58.613Z,30.40
2022-10-22T07:57:57.815Z,35.50
2022-10-22T07:58:57.751Z,43.80
2022-10-22T07:59:57.696Z,47.80
2022-10-22T08:00:58.481Z,46.10
2022-10-22T08:01:57.850Z,37.30
2022-10-22T08:02:57.927Z,38.50
2022-10-22T08:03:57.669Z,43.30
2022-10-22T08:04:57.968Z,37.20
2022-10-22T08:05:58.020Z,37.50
2022-10-22T08:06:58.100Z,35.00
2022-10-22T08:07:57.592Z,47.00
2022-10-22T08:08:57.632Z,39.50
2022-10-22T08:09:58.235Z,33.20
2022-10-22T08:10:58.271Z,50.90
2022-10-22T08:11:58.410Z,48.90
2022-10-22T08:12:57.491Z,36.80
2022-10-22T08:13:58.394Z,38.30
2022-10-22T08:14:57.558Z,55.00
2022-10-22T08:15:58.323Z,41.40
2022-10-22T08:16:58.223Z,39.10
2022-10-22T08:17:58.392Z,36.80
2022-10-22T08:18:57.413Z,35.00
2022-10-22T08:19:57.391Z,43.80
2022-10-22T08:20:57.464Z,55.20
2022-10-22T08:21:57.406Z,39.40
2022-10-22T08:22:57.365Z,31.90
2022-10-22T08:23:57.375Z,34.00
2022-10-22T08:24:57.403Z,56.00
2022-10-22T08:25:57.383Z,44.40
2022-10-22T08:26:57.340Z,44.30
2022-10-22T08:27:57.305Z,36.40
2022-10-22T08:28:57.274Z,40.00
2022-10-22T08:29:57.257Z,35.60
2022-10-22T08:30:57.239Z,34.40
2022-10-22T08:31:57.248Z,41.90
2022-10-22T08:32:57.218Z,39.20
2022-10-22T08:33:57.240Z,40.50
2022-10-22T08:34:57.181Z,39.30
2022-10-22T08:35:57.204Z,32.30
2022-10-22T08:36:57.149Z,29.20
2022-10-22T08:37:57.137Z,38.10
2022-10-22T08:38:57.138Z,26.70
2022-10-22T08:39:57.172Z,38.60
2022-10-22T08:40:57.092Z,31.10
2022-10-22T08:41:57.089Z,35.50
2022-10-22T08:42:57.091Z,33.80
2022-10-22T08:43:57.058Z,31.00
2022-10-22T08:44:57.040Z,51.40
2022-10-22T08:45:57.030Z,57.70
2022-10-22T08:46:56.981Z,34.00
2022-10-22T08:47:57.014Z,36.50
2022-10-22T08:48:57.062Z,31.00
2022-10-22T08:49:57.841Z,38.40
2022-10-22T08:50:57.789Z,38.70
2022-10-22T08:51:56.932Z,40.50
2022-10-22T08:52:56.942Z,37.60
2022-10-22T08:53:56.904Z,50.90
2022-10-22T08:54:56.904Z,32.70
2022-10-22T08:55:59.393Z,34.20
2022-10-22T08:56:56.886Z,27.10
2022-10-22T08:57:56.873Z,31.00
2022-10-22T08:58:56.903Z,43.50
2022-10-22T08:59:56.875Z,52.90
2022-10-22T09:00:56.857Z,32.30
2022-10-22T09:01:56.767Z,29.90
2022-10-22T09:02:56.787Z,30.80
2022-10-22T09:03:56.769Z,23.90
2022-10-22T09:04:57.679Z,38.60
2022-10-22T09:05:56.752Z,29.00
2022-10-22T09:06:56.719Z,25.10
2022-10-22T09:07:56.686Z,40.00
2022-10-22T09:08:56.730Z,36.60
2022-10-22T09:09:56.689Z,24.90
2022-10-22T09:10:56.679Z,23.10
2022-10-22T09:11:57.518Z,31.30
2022-10-22T09:12:56.604Z,26.10
2022-10-22T09:13:56.610Z,28.10
2022-10-22T09:14:56.615Z,28.30
2022-10-22T09:15:58.077Z,21.80
2022-10-22T09:16:56.578Z,25.50
2022-10-22T09:17:56.569Z,38.10
2022-10-22T09:18:56.540Z,35.90
2022-10-22T09:19:56.513Z,22.60
2022-10-22T09:20:56.500Z,21.20
2022-10-22T09:21:56.493Z,24.60
2022-10-22T09:22:56.482Z,21.30
2022-10-22T09:23:56.461Z,29.60
2022-10-22T09:24:56.427Z,26.80
2022-10-22T09:25:56.452Z,20.90
2022-10-22T09:26:56.433Z,19.70
2022-10-22T09:27:56.405Z,24.00
2022-10-22T09:28:57.167Z,27.10
2022-10-22T09:29:56.367Z,20.50
2022-10-22T09:31:56.372Z,20.60
2022-10-22T09:32:56.355Z,18.10
2022-10-22T09:33:56.325Z,19.50
2022-10-22T09:34:56.325Z,24.60
2022-10-22T09:35:56.297Z,21.00
2022-10-22T09:36:56.276Z,21.60
2022-10-22T09:37:56.267Z,21.30
2022-10-22T09:38:56.298Z,12.80
2022-10-22T09:39:56.768Z,14.00
2022-10-22T09:40:56.236Z,14.90
2022-10-22T09:41:56.192Z,15.10
2022-10-22T09:42:56.228Z,13.80
2022-10-22T09:43:56.158Z,20.90
2022-10-22T09:44:56.171Z,21.30
2022-10-22T09:45:56.173Z,18.60
2022-10-22T09:46:56.131Z,19.00
2022-10-22T09:48:02.019Z,16.50
2022-10-22T09:48:57.164Z,23.90
2022-10-22T09:49:56.101Z,15.20
2022-10-22T09:50:56.553Z,14.90
2022-10-22T09:51:56.071Z,17.10
2022-10-22T09:52:56.041Z,16.10
2022-10-22T09:53:56.030Z,17.30
2022-10-22T09:54:56.025Z,17.90
2022-10-22T09:56:56.843Z,14.00
2022-10-22T09:57:55.966Z,12.90
2022-10-22T09:58:55.965Z,17.10
2022-10-22T09:59:55.943Z,9.60
2022-10-22T10:00:55.904Z,11.00
2022-10-22T10:01:55.922Z,13.60
2022-10-22T10:02:56.754Z,9.90
2022-10-22T10:03:55.934Z,10.00
2022-10-22T10:04:55.914Z,8.40
2022-10-22T10:05:56.042Z,8.80
2022-10-22T10:06:55.867Z,10.30
2022-10-22T10:07:55.851Z,11.00
2022-10-22T10:08:55.876Z,13.40
2022-10-22T10:09:55.830Z,8.60
2022-10-22T10:10:55.832Z,9.40
2022-10-22T10:11:55.781Z,8.90
2022-10-22T10:12:55.753Z,9.20
2022-10-22T10:13:55.782Z,8.10
2022-10-22T10:14:55.729Z,10.40
2022-10-22T10:15:55.749Z,9.20
2022-10-22T10:16:55.688Z,8.80
2022-10-22T10:17:55.689Z,10.10
2022-10-22T10:18:55.667Z,8.60
2022-10-22T10:19:57.012Z,6.70
2022-10-22T10:20:55.650Z,8.30
2022-10-22T10:21:55.655Z,9.20
2022-10-22T10:22:56.592Z,17.30
2022-10-22T10:23:55.623Z,13.30
2022-10-22T10:24:55.677Z,8.20
2022-10-22T10:25:55.593Z,8.90
2022-10-22T10:26:55.610Z,7.60
2022-10-22T10:27:55.553Z,6.70
2022-10-22T10:28:55.555Z,6.40
2022-10-22T10:29:55.542Z,8.70
2022-10-22T10:30:55.578Z,7.10
2022-10-22T10:31:55.513Z,6.70
2022-10-22T10:32:56.455Z,8.20
2022-10-22T10:33:55.454Z,9.40
2022-10-22T10:34:56.205Z,6.40
2022-10-22T10:35:55.428Z,8.50
2022-10-22T10:36:56.275Z,8.00
2022-10-22T10:37:55.655Z,9.00
2022-10-22T10:38:55.427Z,7.80
2022-10-22T10:39:56.244Z,7.10
2022-10-22T10:40:55.354Z,5.40
2022-10-22T10:41:56.797Z,8.00
2022-10-22T10:42:56.208Z,7.60
2022-10-22T10:43:55.322Z,6.30
2022-10-22T10:44:55.295Z,5.60
2022-10-22T10:45:56.169Z,5.60
2022-10-22T10:46:56.078Z,7.60
2022-10-22T10:47:55.231Z,5.50
2022-10-22T10:48:56.141Z,5.40
2022-10-22T10:49:55.210Z,6.40
2022-10-22T10:50:55.296Z,7.50
2022-10-22T10:51:56.110Z,5.40
2022-10-22T10:52:55.210Z,7.30
2022-10-22T10:53:55.921Z,7.00
2022-10-22T10:54:56.137Z,6.30
2022-10-22T10:55:55.983Z,6.10
2022-10-22T10:56:55.884Z,5.30
2022-10-22T10:57:55.093Z,5.40
2022-10-22T10:58:55.118Z,8.70
2022-10-22T10:59:55.078Z,6.50
2022-10-22T11:00:55.064Z,6.70
2022-10-22T11:01:55.156Z,6.70
2022-10-22T11:03:55.983Z,6.00
2022-10-22T11:04:56.508Z,6.10
2022-10-22T11:05:55.787Z,7.60
2022-10-22T11:07:10.659Z,5.60
2022-10-22T11:07:56.572Z,3.80
2022-10-22T11:08:56.441Z,4.40
2022-10-22T11:09:54.911Z,4.20
2022-10-22T11:10:54.988Z,5.80
2022-10-22T11:11:55.251Z,6.10
2022-10-22T11:12:54.888Z,5.00
2022-10-22T11:13:55.787Z,4.90
2022-10-22T11:14:55.691Z,4.10
2022-10-22T11:15:54.851Z,4.70
2022-10-22T11:16:55.793Z,4.00
2022-10-22T11:17:55.660Z,5.20
2022-10-22T11:18:54.855Z,4.40
2022-10-22T11:19:59.167Z,4.40
2022-10-22T11:20:55.789Z,4.90
2022-10-22T11:21:56.246Z,3.70
2022-10-22T11:23:18.164Z,4.10
2022-10-22T11:23:55.835Z,3.00
2022-10-22T11:24:55.561Z,3.80
2022-10-22T11:25:55.696Z,3.40
2022-10-22T11:26:55.563Z,4.30
2022-10-22T11:27:59.764Z,4.20
2022-10-22T11:28:55.847Z,4.70
2022-10-22T11:29:55.632Z,3.90
2022-10-22T11:30:55.481Z,3.70
2022-10-22T11:31:54.699Z,3.30
2022-10-22T11:32:56.070Z,3.20
2022-10-22T11:34:04.768Z,3.10
2022-10-22T11:34:55.605Z,2.90
2022-10-22T11:35:55.518Z,3.30
2022-10-22T11:36:55.408Z,2.80
2022-10-22T11:37:55.329Z,3.00
2022-10-22T11:38:55.438Z,2.90
2022-10-22T11:39:54.626Z,2.90
2022-10-22T11:40:54.756Z,2.90
2022-10-22T11:41:54.678Z,3.10
2022-10-22T11:42:54.855Z,3.30
2022-10-22T11:43:54.812Z,2.90
2022-10-22T11:44:55.060Z,3.70
2022-10-22T11:45:54.861Z,2.50
2022-10-22T11:46:54.442Z,2.70
2022-10-22T11:47:54.391Z,2.90
2022-10-22T11:48:55.069Z,3.40
2022-10-22T11:49:54.417Z,2.80
2022-10-22T11:50:55.326Z,2.80
2022-10-22T11:51:54.362Z,2.10
2022-10-22T11:52:54.517Z,2.00
2022-10-22T11:53:54.482Z,2.30
2022-10-22T11:54:54.373Z,2.50
2022-10-22T11:55:54.283Z,2.40
2022-10-22T11:56:54.315Z,2.00
2022-10-22T11:57:54.255Z,2.20
2022-10-22T11:58:54.980Z,2.30
2022-10-22T11:59:54.266Z,2.20
2022-10-22T12:00:54.323Z,2.30
2022-10-22T12:01:54.265Z,2.00
2022-10-22T12:02:54.352Z,2.20
2022-10-22T12:03:54.185Z,2.00
2022-10-22T12:04:54.324Z,2.20
2022-10-22T12:05:54.218Z,2.00
2022-10-22T12:06:54.197Z,2.20
2022-10-22T12:07:54.164Z,2.00
2022-10-22T12:08:54.320Z,2.10
2022-10-22T12:09:54.374Z,2.20
2022-10-22T12:10:54.119Z,2.40
2022-10-22T12:11:54.134Z,2.10
2022-10-22T12:12:54.090Z,2.30
2022-10-22T12:13:54.090Z,2.20
2022-10-22T12:14:54.844Z,2.50
2022-10-22T12:15:54.007Z,1.90
2022-10-22T12:16:56.634Z,2.30
2022-10-22T12:17:54.002Z,2.10
2022-10-22T12:18:53.956Z,2.10
2022-10-22T12:19:55.509Z,2.40
2022-10-22T12:20:54.005Z,2.10
2022-10-22T12:21:54.775Z,2.80
2022-10-22T12:22:55.375Z,2.70
2022-10-22T12:23:53.974Z,2.50
2022-10-22T12:24:53.907Z,2.00
2022-10-22T12:25:53.896Z,2.80
2022-10-22T12:26:53.885Z,2.80
2022-10-22T12:27:53.909Z,2.40
2022-10-22T12:28:53.871Z,3.00
2022-10-22T12:29:53.838Z,2.30
2022-10-22T12:30:53.806Z,2.60
2022-10-22T12:31:53.787Z,2.60
2022-10-22T12:32:53.779Z,3.40
2022-10-22T12:33:53.840Z,3.70
2022-10-22T12:34:53.767Z,2.40
2022-10-22T12:35:53.801Z,2.60
2022-10-22T12:36:53.748Z,2.80
2022-10-22T12:37:53.703Z,3.30
2022-10-22T12:38:53.710Z,2.80
2022-10-22T12:39:54.438Z,2.70
2022-10-22T12:40:53.680Z,3.50
2022-10-22T12:41:53.664Z,3.50
2022-10-22T12:42:53.667Z,2.70
2022-10-22T12:43:53.596Z,2.70
2022-10-22T12:44:53.612Z,3.20
2022-10-22T12:45:53.565Z,2.80
2022-10-22T12:46:56.144Z,3.20
2022-10-22T12:47:53.675Z,3.00
2022-10-22T12:48:53.642Z,2.90
2022-10-22T12:49:53.549Z,2.90
2022-10-22T12:50:53.550Z,3.40
2022-10-22T12:51:53.516Z,3.40
2022-10-22T12:52:53.585Z,3.40
2022-10-22T12:53:53.485Z,3.70
2022-10-22T12:54:53.456Z,3.70
2022-10-22T12:55:53.513Z,3.20
2022-10-22T12:56:53.457Z,3.20
2022-10-22T12:57:53.413Z,3.50
2022-10-22T12:58:53.890Z,3.50
2022-10-22T12:59:53.497Z,3.00
2022-10-22T13:00:53.730Z,4.00
2022-10-22T13:01:53.425Z,4.10